createdAt,value
2019-06-20T00:00:50.986Z,6.40
2019-06-20T00:02:56.151Z,3.23
2019-06-20T00:05:01.904Z,3.40
2019-06-20T00:07:07.035Z,4.28
2019-06-20T00:09:12.234Z,2.60
2019-06-20T00:11:17.341Z,3.50
2019-06-20T00:13:22.751Z,4.93
2019-06-20T00:15:27.956Z,4.00
2019-06-20T00:17:33.018Z,8.77
2019-06-20T00:19:38.219Z,3.30
2019-06-20T00:21:43.662Z,4.13
2019-06-20T00:23:48.940Z,3.57
2019-06-20T00:25:54.061Z,8.48
2019-06-20T00:27:59.621Z,6.60
2019-06-20T00:30:05.633Z,9.03
2019-06-20T00:32:10.657Z,4.30
2019-06-20T00:34:15.981Z,5.10
2019-06-20T00:36:21.335Z,6.10
2019-06-20T00:38:26.414Z,4.00
2019-06-20T00:40:31.461Z,9.63
2019-06-20T00:42:36.721Z,5.17
2019-06-20T00:44:42.070Z,5.07
2019-06-20T00:46:47.648Z,9.90
2019-06-20T00:48:52.744Z,3.90
2019-06-20T00:50:58.016Z,4.33
2019-06-20T00:53:03.266Z,7.30
2019-06-20T00:55:08.687Z,4.33
2019-06-20T00:57:13.859Z,6.37
2019-06-20T00:59:19.069Z,7.60
2019-06-20T01:01:24.926Z,8.50
2019-06-20T01:03:31.521Z,6.93
2019-06-20T01:05:37.294Z,10.53
2019-06-20T01:07:42.769Z,5.70
2019-06-20T01:09:48.317Z,6.03
2019-06-20T01:11:53.519Z,8.13
2019-06-20T01:13:58.912Z,10.70
2019-06-20T01:16:04.033Z,8.85
2019-06-20T01:18:09.608Z,10.00
2019-06-20T01:20:14.828Z,8.83
2019-06-20T01:22:20.007Z,27.07
2019-06-20T01:24:25.118Z,11.83
2019-06-20T01:26:30.567Z,7.50
2019-06-20T01:28:35.717Z,10.80
2019-06-20T01:30:40.909Z,9.90
2019-06-20T01:32:46.058Z,10.97
2019-06-20T01:34:51.275Z,14.33
2019-06-20T01:36:56.381Z,14.23
2019-06-20T01:39:01.982Z,14.57
2019-06-20T01:41:07.102Z,17.60
2019-06-20T01:43:12.209Z,22.90
2019-06-20T01:45:17.869Z,22.47
2019-06-20T01:47:23.051Z,18.80
2019-06-20T01:49:28.842Z,20.47
2019-06-20T01:51:33.996Z,20.77
2019-06-20T01:53:39.187Z,23.80
2019-06-20T01:55:44.393Z,24.87
2019-06-20T01:57:49.477Z,25.43
2019-06-20T01:59:55.048Z,22.20
2019-06-20T02:02:00.413Z,22.30
2019-06-20T02:04:05.656Z,25.40
2019-06-20T02:06:11.098Z,27.30
2019-06-20T02:08:16.199Z,27.07
2019-06-20T02:10:21.759Z,26.30
2019-06-20T02:12:26.908Z,31.20
2019-06-20T02:14:32.002Z,27.43
2019-06-20T02:16:37.124Z,32.67
2019-06-20T02:18:42.251Z,27.37
2019-06-20T02:20:50.402Z,30.50
2019-06-20T02:22:55.809Z,35.73
2019-06-20T02:25:01.129Z,26.87
2019-06-20T02:27:06.379Z,28.17
2019-06-20T02:29:11.386Z,28.70
2019-06-20T02:31:16.539Z,27.32
2019-06-20T02:33:21.655Z,24.83
2019-06-20T02:35:27.141Z,24.10
2019-06-20T02:37:32.526Z,28.37
2019-06-20T02:39:37.952Z,22.67
2019-06-20T02:41:43.320Z,25.33
2019-06-20T02:43:48.877Z,22.83
2019-06-20T02:45:54.075Z,21.70
2019-06-20T02:47:59.324Z,21.13
2019-06-20T02:50:05.690Z,22.30
2019-06-20T02:52:10.726Z,21.30
2019-06-20T02:54:15.878Z,24.10
2019-06-20T02:56:21.213Z,20.30
2019-06-20T02:58:26.384Z,21.70
2019-06-20T03:00:47.521Z,22.97
2019-06-20T03:02:52.885Z,22.73
2019-06-20T03:04:58.326Z,18.87
2019-06-20T03:07:03.653Z,19.53
2019-06-20T03:09:08.974Z,22.20
2019-06-20T03:11:13.976Z,20.70
2019-06-20T03:13:19.555Z,21.00
2019-06-20T03:15:24.538Z,25.93
2019-06-20T03:17:29.804Z,30.80
2019-06-20T03:19:35.156Z,24.93
2019-06-20T03:21:40.838Z,27.50
2019-06-20T03:23:46.038Z,29.92
2019-06-20T03:25:51.348Z,30.13
2019-06-20T03:27:56.333Z,30.67
2019-06-20T03:30:01.869Z,25.33
2019-06-20T03:32:07.193Z,24.93
2019-06-20T03:34:12.302Z,29.83
2019-06-20T03:36:17.407Z,24.13
2019-06-20T03:38:22.451Z,28.63
2019-06-20T03:40:27.627Z,31.20
2019-06-20T03:42:32.575Z,30.40
2019-06-20T03:44:37.747Z,28.63
2019-06-20T03:46:42.934Z,26.67
2019-06-20T03:48:48.161Z,31.37
2019-06-20T03:50:53.309Z,32.47
2019-06-20T03:53:04.886Z,28.20
2019-06-20T03:55:10.116Z,32.90
2019-06-20T03:57:15.233Z,35.83
2019-06-20T03:59:20.278Z,31.20
2019-06-20T04:01:25.246Z,31.17
2019-06-20T04:03:30.567Z,32.77
2019-06-20T04:05:36.404Z,40.73
2019-06-20T04:07:42.187Z,32.53
2019-06-20T04:09:47.391Z,33.33
2019-06-20T04:11:52.459Z,35.57
2019-06-20T04:13:57.600Z,34.80
2019-06-20T04:16:02.789Z,32.10
2019-06-20T04:18:07.928Z,30.80
2019-06-20T04:20:13.053Z,44.80
2019-06-20T04:22:18.376Z,37.17
2019-06-20T04:24:23.577Z,35.53
2019-06-20T04:26:28.683Z,39.20
2019-06-20T04:28:34.114Z,31.10
2019-06-20T04:30:39.202Z,34.20
2019-06-20T04:32:44.199Z,35.90
2019-06-20T04:34:49.336Z,30.63
2019-06-20T04:36:54.477Z,34.53
2019-06-20T04:38:59.493Z,31.50
2019-06-20T04:41:04.766Z,35.07
2019-06-20T04:43:10.170Z,34.47
2019-06-20T04:45:35.210Z,30.37
2019-06-20T04:47:35.089Z,32.73
2019-06-20T04:49:40.134Z,32.90
2019-06-20T04:51:45.274Z,35.73
2019-06-20T04:53:50.396Z,32.70
2019-06-20T04:55:55.594Z,34.67
2019-06-20T04:58:00.675Z,37.30
2019-06-20T05:00:06.677Z,31.83
2019-06-20T05:02:14.730Z,35.10
2019-06-20T05:04:18.598Z,34.63
2019-06-20T05:06:23.757Z,36.35
2019-06-20T05:08:28.904Z,36.87
2019-06-20T05:10:34.250Z,28.40
2019-06-20T05:12:39.637Z,35.27
2019-06-20T05:14:44.836Z,32.38
2019-06-20T05:16:49.975Z,39.00
2019-06-20T05:18:55.150Z,34.53
2019-06-20T05:21:00.936Z,36.57
2019-06-20T05:23:05.967Z,37.30
2019-06-20T05:25:11.843Z,33.73
2019-06-20T05:27:17.004Z,31.57
2019-06-20T05:29:22.051Z,32.73
2019-06-20T05:31:27.244Z,30.60
2019-06-20T05:33:32.397Z,37.80
2019-06-20T05:35:37.485Z,40.23
2019-06-20T05:37:42.687Z,28.07
2019-06-20T05:39:47.951Z,30.70
2019-06-20T05:41:53.556Z,30.10
2019-06-20T05:43:58.611Z,29.07
2019-06-20T05:46:09.356Z,34.80
2019-06-20T05:48:10.841Z,31.47
2019-06-20T05:50:16.134Z,27.23
2019-06-20T05:52:21.226Z,27.53
2019-06-20T05:54:26.299Z,34.87
2019-06-20T05:56:31.379Z,28.30
2019-06-20T05:58:36.342Z,25.03
2019-06-20T06:00:41.832Z,24.30
2019-06-20T06:02:47.016Z,21.53
2019-06-20T06:04:52.222Z,24.87
2019-06-20T06:06:57.345Z,28.70
2019-06-20T06:09:02.727Z,27.43
2019-06-20T06:11:07.799Z,27.73
2019-06-20T06:13:12.877Z,27.27
2019-06-20T06:15:18.167Z,29.73
2019-06-20T06:17:23.490Z,29.87
2019-06-20T06:19:28.574Z,25.67
2019-06-20T06:21:33.703Z,30.30
2019-06-20T06:23:38.981Z,28.95
2019-06-20T06:25:44.219Z,28.17
2019-06-20T06:27:49.475Z,29.60
2019-06-20T06:29:54.517Z,28.37
2019-06-20T06:31:59.715Z,30.93
2019-06-20T06:34:04.761Z,26.10
2019-06-20T06:36:09.831Z,24.93
2019-06-20T06:38:21.648Z,30.80
2019-06-20T06:40:22.438Z,28.40
2019-06-20T06:42:27.731Z,28.30
2019-06-20T06:44:32.846Z,25.30
2019-06-20T06:46:45.052Z,28.97
2019-06-20T06:48:45.211Z,27.87
2019-06-20T06:50:50.376Z,26.30
2019-06-20T06:52:55.610Z,23.93
2019-06-20T06:55:01.178Z,29.03
2019-06-20T06:57:06.594Z,27.67
2019-06-20T06:59:11.784Z,25.23
2019-06-20T07:01:16.864Z,28.37
2019-06-20T07:03:22.514Z,28.00
2019-06-20T07:05:27.624Z,23.47
2019-06-20T07:07:32.963Z,27.20
2019-06-20T07:09:38.102Z,22.33
2019-06-20T07:11:43.339Z,18.57
2019-06-20T07:13:48.894Z,21.93
2019-06-20T07:15:54.133Z,23.60
2019-06-20T07:17:59.348Z,20.40
2019-06-20T07:20:06.629Z,25.60
2019-06-20T07:22:12.010Z,23.52
2019-06-20T07:24:17.969Z,26.90
2019-06-20T07:26:23.087Z,25.87
2019-06-20T07:28:28.313Z,28.07
2019-06-20T07:30:33.703Z,34.83
2019-06-20T07:32:38.692Z,22.17
2019-06-20T07:34:43.932Z,27.20
2019-06-20T07:36:49.072Z,30.90
2019-06-20T07:38:54.281Z,25.32
2019-06-20T07:40:59.448Z,28.03
2019-06-20T07:43:04.630Z,26.60
2019-06-20T07:45:10.395Z,24.97
2019-06-20T07:47:18.008Z,31.77
2019-06-20T07:49:22.644Z,26.20
2019-06-20T07:51:27.650Z,28.23
2019-06-20T07:53:32.811Z,27.27
2019-06-20T07:55:37.902Z,30.93
2019-06-20T07:57:43.099Z,23.10
2019-06-20T07:59:48.209Z,25.17
2019-06-20T08:01:53.396Z,23.00
2019-06-20T08:03:58.484Z,22.82
2019-06-20T08:06:03.768Z,23.03
2019-06-20T08:08:09.323Z,21.63
2019-06-20T08:10:14.952Z,24.40
2019-06-20T08:12:20.007Z,19.35
2019-06-20T08:14:25.016Z,18.80
2019-06-20T08:16:30.149Z,18.40
2019-06-20T08:18:35.123Z,17.77
2019-06-20T08:20:40.430Z,16.40
2019-06-20T08:22:45.547Z,17.63
2019-06-20T08:24:53.221Z,16.67
2019-06-20T08:26:58.722Z,17.17
2019-06-20T08:29:15.266Z,17.10
2019-06-20T08:31:11.089Z,14.50
2019-06-20T08:33:16.098Z,14.60
2019-06-20T08:35:23.565Z,11.97
2019-06-20T08:37:28.589Z,13.93
2019-06-20T08:39:34.550Z,18.97
2019-06-20T08:41:40.078Z,16.57
2019-06-20T08:43:45.364Z,13.40
2019-06-20T08:45:52.064Z,14.77
2019-06-20T08:47:58.360Z,16.80
2019-06-20T08:50:03.869Z,19.07
2019-06-20T08:52:09.155Z,15.70
2019-06-20T08:54:14.602Z,15.03
2019-06-20T08:58:37.147Z,18.13
2019-06-20T09:00:42.369Z,15.50
2019-06-20T09:02:47.547Z,15.23
2019-06-20T09:04:54.834Z,11.63
2019-06-20T09:07:00.584Z,15.17
2019-06-20T09:09:09.224Z,15.67
2019-06-20T09:11:14.847Z,10.93
2019-06-20T09:13:20.145Z,12.10
2019-06-20T09:15:25.497Z,13.97
2019-06-20T09:17:30.768Z,14.50
2019-06-20T09:19:35.845Z,12.80
2019-06-20T09:21:41.029Z,10.63
2019-06-20T09:23:46.116Z,12.90
2019-06-20T09:25:52.334Z,14.13
2019-06-20T09:27:58.144Z,14.50
2019-06-20T09:30:03.572Z,15.03
2019-06-20T09:32:08.955Z,10.97
2019-06-20T09:34:14.798Z,12.60
2019-06-20T09:36:19.806Z,15.10
2019-06-20T09:38:25.122Z,37.77
2019-06-20T09:40:31.109Z,16.53
2019-06-20T09:42:36.967Z,17.60
2019-06-20T09:44:42.268Z,23.00
2019-06-20T09:46:47.573Z,17.10
2019-06-20T09:48:53.937Z,17.30
2019-06-20T09:50:59.131Z,14.95
2019-06-20T09:53:04.420Z,15.40
2019-06-20T09:55:10.209Z,16.63
2019-06-20T09:57:15.226Z,16.03
2019-06-20T09:59:27.682Z,20.40
2019-06-20T10:01:27.133Z,23.20
2019-06-20T10:03:32.329Z,17.47
2019-06-20T10:05:37.762Z,16.10
2019-06-20T10:07:43.027Z,18.92
2019-06-20T10:09:48.263Z,17.77
2019-06-20T10:11:54.104Z,16.53
2019-06-20T10:13:59.342Z,15.73
2019-06-20T10:16:04.970Z,18.30
2019-06-20T10:18:10.080Z,13.87
2019-06-20T10:20:15.649Z,14.87
2019-06-20T10:22:20.642Z,17.33
2019-06-20T10:24:25.890Z,16.10
2019-06-20T10:26:30.963Z,17.53
2019-06-20T10:28:36.001Z,17.23
2019-06-20T10:30:41.473Z,20.20
2019-06-20T10:32:46.825Z,19.50
2019-06-20T10:34:52.719Z,18.67
2019-06-20T10:36:58.341Z,12.03
2019-06-20T10:39:03.941Z,17.20
2019-06-20T10:41:09.016Z,17.90
2019-06-20T10:43:14.450Z,19.83
2019-06-20T10:45:21.666Z,17.67
2019-06-20T10:47:33.498Z,15.60
2019-06-20T10:49:34.121Z,18.20
2019-06-20T10:51:45.801Z,16.47
2019-06-20T10:53:51.433Z,27.03
2019-06-20T10:55:56.530Z,21.27
2019-06-20T10:58:01.778Z,20.10
2019-06-20T11:00:10.158Z,19.03
2019-06-20T11:02:15.309Z,24.90
2019-06-20T11:04:20.464Z,16.33
2019-06-20T11:06:25.909Z,20.40
2019-06-20T11:08:31.147Z,16.80
2019-06-20T11:10:36.827Z,20.77
2019-06-20T11:12:47.885Z,20.40
2019-06-20T11:14:48.871Z,22.37
2019-06-20T11:16:54.384Z,18.63
2019-06-20T11:18:59.554Z,15.80
2019-06-20T11:21:05.039Z,24.23
2019-06-20T11:23:10.667Z,26.63
2019-06-20T11:25:19.519Z,21.07
2019-06-20T11:27:25.603Z,16.40
2019-06-20T11:29:30.808Z,16.80
2019-06-20T11:31:37.501Z,23.40
2019-06-20T11:33:44.123Z,15.43
2019-06-20T11:35:49.564Z,15.00
2019-06-20T11:37:55.302Z,16.27
2019-06-20T11:40:00.382Z,16.30
2019-06-20T11:42:05.371Z,14.50
2019-06-20T11:44:10.763Z,15.97
2019-06-20T11:46:16.089Z,13.07
2019-06-20T11:48:21.592Z,12.30
2019-06-20T11:50:26.764Z,12.60
2019-06-20T11:52:36.900Z,12.77
2019-06-20T11:54:38.765Z,17.43
2019-06-20T11:56:43.922Z,11.73
2019-06-20T11:58:49.535Z,10.57
2019-06-20T12:01:03.697Z,11.40
2019-06-20T12:03:01.812Z,12.83
2019-06-20T12:05:07.572Z,14.63
2019-06-20T12:07:12.551Z,9.90
2019-06-20T12:09:17.363Z,12.80
2019-06-20T12:11:22.102Z,14.97
2019-06-20T12:13:26.965Z,10.10
2019-06-20T12:15:32.250Z,9.87
2019-06-20T12:17:39.325Z,11.27
2019-06-20T12:19:44.553Z,12.70
2019-06-20T12:21:49.490Z,11.50
2019-06-20T12:23:54.241Z,10.47
2019-06-20T12:25:59.087Z,8.50
2019-06-20T12:28:03.871Z,7.53
2019-06-20T12:30:10.462Z,8.37
2019-06-20T12:32:15.996Z,8.23
2019-06-20T12:34:21.428Z,9.10
2019-06-20T12:36:26.601Z,10.57
2019-06-20T12:38:31.791Z,12.60
2019-06-20T12:40:39.146Z,12.70
2019-06-20T12:42:44.901Z,8.47
2019-06-20T12:44:50.811Z,11.83
2019-06-20T12:46:56.167Z,9.30
2019-06-20T12:49:01.384Z,9.20
2019-06-20T12:51:06.404Z,10.03
2019-06-20T12:53:11.639Z,10.30
2019-06-20T12:55:16.790Z,9.30
2019-06-20T12:57:22.308Z,8.70
2019-06-20T12:59:27.779Z,9.50
2019-06-20T13:01:38.184Z,11.47
2019-06-20T13:03:40.442Z,10.53
2019-06-20T13:05:46.969Z,8.70
2019-06-20T13:07:52.682Z,9.53
2019-06-20T13:09:57.996Z,9.87
2019-06-20T13:12:03.146Z,10.70
2019-06-20T13:14:08.235Z,12.97
2019-06-20T13:16:13.546Z,10.73
2019-06-20T13:18:18.580Z,9.97
2019-06-20T13:20:25.457Z,9.80
2019-06-20T13:22:30.489Z,10.23
2019-06-20T13:24:35.713Z,8.50
2019-06-20T13:26:42.337Z,10.87
2019-06-20T13:29:00.737Z,12.30
2019-06-20T13:30:55.029Z,10.40
2019-06-20T13:33:00.441Z,13.70
2019-06-20T13:35:06.200Z,11.17
2019-06-20T13:37:11.670Z,13.00
2019-06-20T13:39:16.754Z,11.53
2019-06-20T13:41:22.035Z,12.30
2019-06-20T13:43:27.619Z,13.93
2019-06-20T13:45:33.154Z,14.47
2019-06-20T13:47:38.848Z,12.40
2019-06-20T13:49:45.838Z,12.03
2019-06-20T13:51:51.092Z,15.57
2019-06-20T13:53:56.076Z,11.67
2019-06-20T13:56:01.201Z,11.50
2019-06-20T13:58:06.493Z,16.77
2019-06-20T14:00:12.190Z,13.87
2019-06-20T14:02:17.204Z,11.65
2019-06-20T14:04:22.403Z,11.20
2019-06-20T14:06:31.678Z,16.60
2019-06-20T14:08:37.170Z,13.10
2019-06-20T14:10:44.086Z,13.17
2019-06-20T14:12:49.848Z,10.17
2019-06-20T14:14:55.103Z,10.97
2019-06-20T14:17:00.301Z,14.75
2019-06-20T14:19:05.481Z,13.37
2019-06-20T14:21:10.617Z,11.47
2019-06-20T14:23:16.342Z,13.70
2019-06-20T14:25:21.837Z,10.43
2019-06-20T14:27:27.037Z,10.53
2019-06-20T14:29:32.132Z,12.87
2019-06-20T14:31:37.685Z,11.27
2019-06-20T14:33:44.180Z,8.80
2019-06-20T14:35:49.764Z,10.13
2019-06-20T14:37:56.212Z,10.67
2019-06-20T14:40:01.488Z,11.33
2019-06-20T14:42:07.007Z,11.70
2019-06-20T14:44:12.059Z,13.00
2019-06-20T14:46:16.957Z,12.80
2019-06-20T14:48:22.741Z,8.47
2019-06-20T14:50:27.859Z,13.40
2019-06-20T14:52:33.035Z,11.95
2019-06-20T14:54:38.217Z,13.60
2019-06-20T14:56:45.896Z,11.90
2019-06-20T14:58:51.570Z,12.10
2019-06-20T15:00:56.782Z,9.60
2019-06-20T15:03:01.875Z,11.37
2019-06-20T15:05:09.136Z,9.77
2019-06-20T15:07:14.076Z,9.45
2019-06-20T15:09:19.299Z,11.83
2019-06-20T15:11:24.474Z,13.20
2019-06-20T15:13:29.542Z,10.67
2019-06-20T15:15:35.183Z,9.50
2019-06-20T15:17:40.169Z,13.37
2019-06-20T15:19:46.131Z,12.70
2019-06-20T15:21:52.099Z,14.80
2019-06-20T15:23:57.178Z,14.07
2019-06-20T15:26:02.292Z,10.50
2019-06-20T15:28:07.568Z,12.67
2019-06-20T15:30:13.575Z,11.77
2019-06-20T15:32:18.785Z,13.70
2019-06-20T15:34:24.088Z,17.30
2019-06-20T15:36:29.213Z,11.83
2019-06-20T15:38:34.316Z,11.87
2019-06-20T15:40:39.483Z,14.23
2019-06-20T15:42:44.541Z,11.78
2019-06-20T15:44:50.574Z,16.97
2019-06-20T15:46:56.725Z,12.60
2019-06-20T15:49:15.344Z,12.20
2019-06-20T15:51:08.684Z,11.00
2019-06-20T15:53:13.991Z,9.10
2019-06-20T15:55:21.179Z,8.30
2019-06-20T15:57:26.322Z,10.53
2019-06-20T15:59:31.478Z,12.73
2019-06-20T16:01:36.656Z,10.90
2019-06-20T16:03:41.710Z,11.77
2019-06-20T16:05:47.279Z,11.77
2019-06-20T16:07:52.835Z,21.20
2019-06-20T16:09:57.931Z,12.90
2019-06-20T16:12:03.044Z,14.50
2019-06-20T16:14:08.112Z,14.50
2019-06-20T16:16:13.332Z,19.33
2019-06-20T16:18:18.507Z,15.27
2019-06-20T16:20:24.666Z,22.80
2019-06-20T16:22:29.677Z,26.10
2019-06-20T16:24:34.891Z,11.53
2019-06-20T16:26:39.815Z,15.93
2019-06-20T16:28:45.213Z,13.57
2019-06-20T16:30:50.894Z,14.68
2019-06-20T16:32:55.921Z,13.40
2019-06-20T16:35:01.233Z,17.27
2019-06-20T16:37:10.041Z,14.40
2019-06-20T16:39:13.039Z,16.20
2019-06-20T16:41:18.656Z,13.53
2019-06-20T16:43:23.740Z,14.03
2019-06-20T16:45:28.952Z,12.53
2019-06-20T16:47:34.220Z,12.00
2019-06-20T16:49:39.553Z,10.00
2019-06-20T16:51:44.667Z,11.43
2019-06-20T16:53:49.922Z,10.00
2019-06-20T16:55:55.373Z,12.20
2019-06-20T16:58:00.169Z,11.63
2019-06-20T17:00:06.986Z,11.57
2019-06-20T17:02:11.831Z,10.10
2019-06-20T17:04:16.832Z,11.10
2019-06-20T17:06:22.168Z,10.73
2019-06-20T17:08:27.610Z,17.07
2019-06-20T17:10:32.735Z,11.13
2019-06-20T17:12:38.118Z,15.68
2019-06-20T17:14:43.312Z,10.30
2019-06-20T17:16:48.635Z,10.90
2019-06-20T17:18:53.749Z,14.40
2019-06-20T17:20:58.919Z,11.15
2019-06-20T17:23:04.272Z,11.57
2019-06-20T17:25:09.558Z,11.07
2019-06-20T17:27:15.251Z,11.20
2019-06-20T17:29:20.519Z,10.77
2019-06-20T17:31:25.560Z,9.50
2019-06-20T17:33:30.969Z,15.70
2019-06-20T17:35:36.117Z,11.57
2019-06-20T17:37:44.757Z,12.73
2019-06-20T17:39:48.169Z,13.50
2019-06-20T17:41:55.420Z,13.30
2019-06-20T17:44:00.154Z,13.33
2019-06-20T17:46:05.451Z,13.38
2019-06-20T17:48:10.502Z,12.37
2019-06-20T17:50:15.861Z,12.47
2019-06-20T17:52:21.076Z,14.60
2019-06-20T17:54:26.102Z,12.83
2019-06-20T17:56:31.254Z,11.00
2019-06-20T17:58:36.781Z,12.93
2019-06-20T18:00:42.073Z,13.37
2019-06-20T18:02:47.911Z,14.15
2019-06-20T18:04:52.934Z,19.10
2019-06-20T18:06:57.879Z,14.20
2019-06-20T18:09:03.797Z,12.47
2019-06-20T18:11:08.889Z,13.85
2019-06-20T18:13:14.376Z,21.27
2019-06-20T18:15:19.711Z,12.00
2019-06-20T18:17:24.934Z,18.57
2019-06-20T18:19:30.146Z,15.30
2019-06-20T18:21:35.441Z,14.30
2019-06-20T18:23:40.555Z,18.03
2019-06-20T18:25:45.940Z,15.13
2019-06-20T18:27:50.962Z,15.98
2019-06-20T18:29:56.481Z,15.10
2019-06-20T18:32:01.591Z,14.30
2019-06-20T18:34:06.800Z,12.50
2019-06-20T18:36:12.023Z,12.35
2019-06-20T18:38:16.994Z,12.57
2019-06-20T18:40:22.488Z,12.73
2019-06-20T18:42:27.653Z,18.60
2019-06-20T18:44:32.980Z,14.60
2019-06-20T18:46:38.160Z,14.77
2019-06-20T18:48:43.372Z,12.40
2019-06-20T18:50:48.505Z,16.90
2019-06-20T18:52:53.980Z,15.70
2019-06-20T18:54:59.207Z,15.50
2019-06-20T18:57:04.572Z,13.27
2019-06-20T18:59:09.798Z,13.30
2019-06-20T19:01:14.744Z,16.43
2019-06-20T19:03:21.428Z,17.67
2019-06-20T19:05:26.678Z,15.37
2019-06-20T19:07:31.762Z,17.93
2019-06-20T19:09:36.906Z,16.03
2019-06-20T19:11:42.065Z,15.60
2019-06-20T19:13:47.227Z,17.60
2019-06-20T19:15:52.452Z,16.53
2019-06-20T19:17:57.994Z,16.93
2019-06-20T19:20:03.567Z,19.47
2019-06-20T19:22:08.920Z,20.80
2019-06-20T19:24:14.026Z,18.13
2019-06-20T19:26:19.391Z,17.00
2019-06-20T19:28:24.760Z,22.40
2019-06-20T19:30:38.214Z,16.23
2019-06-20T19:32:43.574Z,20.40
2019-06-20T19:35:01.523Z,17.07
2019-06-20T19:36:55.879Z,15.40
2019-06-20T19:39:01.411Z,16.33
2019-06-20T19:41:06.531Z,20.82
2019-06-20T19:43:11.720Z,19.03
2019-06-20T19:45:17.306Z,18.40
2019-06-20T19:47:22.487Z,19.27
2019-06-20T19:49:27.652Z,19.48
2019-06-20T19:51:32.876Z,22.20
2019-06-20T19:53:38.194Z,18.43
2019-06-20T19:55:44.376Z,22.97
2019-06-20T19:57:49.501Z,19.90
2019-06-20T19:59:54.759Z,19.20
2019-06-20T20:01:59.870Z,20.63
2019-06-20T20:04:05.090Z,22.30
2019-06-20T20:06:10.228Z,18.42
2019-06-20T20:08:16.005Z,24.83
2019-06-20T20:10:49.241Z,25.57
2019-06-20T20:12:55.020Z,19.33
2019-06-20T20:15:00.354Z,21.57
2019-06-20T20:17:05.572Z,20.17
2019-06-20T20:19:11.117Z,20.60
2019-06-20T20:21:16.603Z,20.37
2019-06-20T20:23:21.719Z,20.20
2019-06-20T20:25:27.034Z,21.43
2019-06-20T20:27:32.976Z,19.50
2019-06-20T20:29:38.010Z,25.23
2019-06-20T20:31:43.474Z,19.73
2019-06-20T20:33:48.404Z,18.00
2019-06-20T20:35:53.579Z,20.63
2019-06-20T20:37:59.174Z,21.57
2019-06-20T20:40:04.397Z,19.25
2019-06-20T20:42:09.754Z,18.90
2019-06-20T20:44:14.949Z,21.63
2019-06-20T20:46:20.399Z,17.57
2019-06-20T20:48:25.566Z,20.50
2019-06-20T20:50:30.806Z,20.00
2019-06-20T20:52:35.895Z,20.43
2019-06-20T20:54:41.071Z,20.60
2019-06-20T20:56:49.334Z,31.10
2019-06-20T20:58:54.422Z,18.77
2019-06-20T21:01:15.189Z,27.70
2019-06-20T21:03:21.361Z,22.90
2019-06-20T21:05:26.400Z,20.90
2019-06-20T21:07:31.553Z,18.57
2019-06-20T21:09:36.837Z,19.20
2019-06-20T21:11:41.895Z,19.00
2019-06-20T21:13:47.164Z,19.60
2019-06-20T21:15:52.165Z,17.00
2019-06-20T21:17:57.647Z,19.10
2019-06-20T21:20:03.248Z,18.23
2019-06-20T21:22:08.302Z,19.40
2019-06-20T21:24:13.527Z,19.20
2019-06-20T21:26:18.766Z,18.70
2019-06-20T21:28:23.756Z,20.77
2019-06-20T21:30:29.152Z,19.42
2019-06-20T21:32:34.426Z,17.83
2019-06-20T21:34:39.496Z,16.87
2019-06-20T21:36:44.708Z,17.33
2019-06-20T21:38:49.860Z,23.30
2019-06-20T21:40:55.249Z,18.50
2019-06-20T21:43:00.367Z,17.27
2019-06-20T21:45:05.998Z,16.67
2019-06-20T21:47:11.587Z,19.33
2019-06-20T21:49:17.096Z,16.37
2019-06-20T21:51:22.589Z,18.50
2019-06-20T21:53:27.600Z,20.40
2019-06-20T21:55:32.771Z,27.33
2019-06-20T21:57:38.375Z,20.60
2019-06-20T21:59:43.772Z,18.33
2019-06-20T22:01:49.093Z,18.87
2019-06-20T22:03:55.599Z,21.00
2019-06-20T22:06:01.510Z,18.20
2019-06-20T22:08:07.323Z,18.93
2019-06-20T22:10:13.172Z,22.50
2019-06-20T22:12:18.345Z,20.60
2019-06-20T22:14:23.790Z,19.00
2019-06-20T22:16:28.850Z,19.20
2019-06-20T22:18:33.871Z,17.33
2019-06-20T22:20:39.013Z,16.77
2019-06-20T22:22:44.140Z,20.08
2019-06-20T22:24:49.120Z,26.43
2019-06-20T22:26:54.104Z,15.20
2019-06-20T22:28:59.342Z,19.87
2019-06-20T22:31:04.874Z,14.67
2019-06-20T22:33:10.333Z,19.47
2019-06-20T22:35:15.743Z,18.50
2019-06-20T22:37:20.824Z,20.53
2019-06-20T22:39:25.943Z,24.23
2019-06-20T22:41:31.197Z,21.05
2019-06-20T22:43:36.170Z,21.97
2019-06-20T22:45:41.323Z,23.00
2019-06-20T22:47:46.375Z,19.27
2019-06-20T22:49:51.574Z,20.57
2019-06-20T22:51:57.367Z,19.00
2019-06-20T22:54:02.517Z,20.60
2019-06-20T22:56:08.198Z,18.07
2019-06-20T22:58:13.376Z,19.77
2019-06-20T23:00:18.933Z,17.87
2019-06-20T23:02:24.045Z,20.10
2019-06-20T23:04:29.092Z,16.73
2019-06-20T23:06:34.496Z,14.97
2019-06-20T23:08:39.555Z,18.42
2019-06-20T23:10:45.110Z,15.90
2019-06-20T23:12:50.494Z,16.63
2019-06-20T23:14:56.082Z,20.50
2019-06-20T23:17:01.085Z,16.87
2019-06-20T23:19:06.260Z,11.87
2019-06-20T23:21:11.557Z,14.73
2019-06-20T23:23:16.821Z,16.90
2019-06-20T23:25:22.047Z,16.33
2019-06-20T23:27:27.261Z,12.50
2019-06-20T23:29:32.399Z,13.50
2019-06-20T23:31:37.818Z,17.00
2019-06-20T23:33:42.813Z,15.95
2019-06-20T23:35:47.958Z,15.43
2019-06-20T23:37:53.339Z,12.70
2019-06-20T23:39:58.587Z,15.17
2019-06-20T23:42:03.816Z,15.23
2019-06-20T23:44:09.460Z,10.87
2019-06-20T23:46:14.770Z,15.70
2019-06-20T23:48:19.857Z,11.37
2019-06-20T23:50:24.812Z,11.33
2019-06-20T23:52:31.623Z,10.83
2019-06-20T23:54:36.787Z,9.70
2019-06-20T23:56:41.935Z,16.23
2019-06-20T23:58:47.071Z,12.13
